createdAt,value
2023-07-31T00:00:20.757Z,2.2
2023-07-31T00:02:21.039Z,2.1
2023-07-31T00:04:21.162Z,2.4
2023-07-31T00:06:21.350Z,2.1
2023-07-31T00:08:21.691Z,2.1
2023-07-31T00:10:22.054Z,2.3
2023-07-31T00:12:22.183Z,2.1
2023-07-31T00:14:22.493Z,2.2
2023-07-31T00:16:22.830Z,2.2
2023-07-31T00:18:22.932Z,2
2023-07-31T00:20:23.684Z,2.1
2023-07-31T00:22:23.461Z,2.1
2023-07-31T00:24:23.893Z,2.2
2023-07-31T00:26:24.016Z,2
2023-07-31T00:28:24.344Z,2
2023-07-31T00:30:24.466Z,2
2023-07-31T00:32:24.871Z,2.3
2023-07-31T00:34:24.988Z,2.2
2023-07-31T00:36:25.267Z,2.1
2023-07-31T00:38:25.568Z,2.2
2023-07-31T00:40:25.824Z,2.4
2023-07-31T00:42:26.023Z,2.1
2023-07-31T00:44:27.904Z,1.8
2023-07-31T00:46:26.533Z,2
2023-07-31T00:48:27.120Z,1.9
2023-07-31T00:50:29.145Z,2.2
2023-07-31T00:52:27.258Z,2.1
2023-07-31T00:54:27.474Z,2.2
2023-07-31T00:56:29.014Z,2.1
2023-07-31T00:58:27.968Z,2.3
2023-07-31T01:00:28.301Z,2.2
2023-07-31T01:02:28.986Z,2
2023-07-31T01:04:28.870Z,2.1
2023-07-31T01:06:36.923Z,2.3
2023-07-31T01:08:39.694Z,2.1
2023-07-31T01:10:37.341Z,2.3
2023-07-31T01:12:32.126Z,2
2023-07-31T01:14:30.383Z,2.3
2023-07-31T01:16:30.353Z,2
2023-07-31T01:18:30.583Z,2.2
2023-07-31T01:20:32.844Z,2.1
2023-07-31T01:22:47.128Z,2.2
2023-07-31T01:24:42.961Z,2.3
2023-07-31T01:26:34.716Z,2.5
2023-07-31T01:28:41.015Z,2
2023-07-31T01:30:35.006Z,2.2
2023-07-31T01:32:32.914Z,2.4
2023-07-31T01:34:33.904Z,2.4
2023-07-31T01:36:33.984Z,2.3
2023-07-31T01:38:33.177Z,2
2023-07-31T01:40:33.332Z,2.4
2023-07-31T01:42:33.676Z,2.1
2023-07-31T01:44:34.506Z,2.2
2023-07-31T01:46:34.200Z,2.3
2023-07-31T01:48:34.385Z,2.2
2023-07-31T01:50:34.618Z,2.2
2023-07-31T01:52:34.938Z,2.2
2023-07-31T01:54:35.142Z,2.3
2023-07-31T01:56:35.420Z,2.5
2023-07-31T01:58:35.814Z,3.5
2023-07-31T02:00:35.910Z,2.4
2023-07-31T02:02:36.174Z,2.3
2023-07-31T02:04:37.302Z,2.3
2023-07-31T02:06:37.587Z,2.2
2023-07-31T02:08:37.004Z,2.1
2023-07-31T02:10:37.715Z,2
2023-07-31T02:12:37.422Z,2.5
2023-07-31T02:14:37.735Z,2.4
2023-07-31T02:16:38.489Z,2.4
2023-07-31T02:18:38.161Z,2.3
2023-07-31T02:20:38.530Z,2.3
2023-07-31T02:22:38.672Z,2.3
2023-07-31T02:24:38.957Z,2.1
2023-07-31T02:26:39.578Z,2.3
2023-07-31T02:28:39.543Z,2.5
2023-07-31T02:30:39.729Z,2.3
2023-07-31T02:32:40.152Z,2.2
2023-07-31T02:34:40.290Z,2.4
2023-07-31T02:36:40.965Z,3.3
2023-07-31T02:38:41.191Z,3.2
2023-07-31T02:40:41.171Z,2.9
2023-07-31T02:42:41.367Z,2.8
2023-07-31T02:44:41.905Z,2.5
2023-07-31T02:46:42.148Z,2.2
2023-07-31T02:48:42.137Z,2.1
2023-07-31T02:50:42.581Z,1.9
2023-07-31T02:52:42.750Z,1.9
2023-07-31T02:54:43.206Z,1.8
2023-07-31T02:56:43.699Z,1.6
2023-07-31T02:58:43.662Z,1.7
2023-07-31T03:00:44.368Z,1.7
2023-07-31T03:02:44.394Z,2
2023-07-31T03:04:44.637Z,1.8
2023-07-31T03:06:44.822Z,1.8
2023-07-31T03:08:45.230Z,1.6
2023-07-31T03:10:45.441Z,1.9
2023-07-31T03:12:47.605Z,2
2023-07-31T03:14:46.371Z,2.1
2023-07-31T03:16:46.582Z,1.7
2023-07-31T03:18:46.726Z,1.8
2023-07-31T03:20:47.539Z,1.9
2023-07-31T03:22:47.357Z,2
2023-07-31T03:24:47.660Z,1.7
2023-07-31T03:26:48.116Z,1.9
2023-07-31T03:28:48.252Z,1.7
2023-07-31T03:30:49.366Z,2
2023-07-31T03:32:48.928Z,1.9
2023-07-31T03:34:49.985Z,1.7
2023-07-31T03:36:49.636Z,1.9
2023-07-31T03:38:50.014Z,1.9
2023-07-31T03:40:50.041Z,2.1
2023-07-31T03:42:50.433Z,1.6
2023-07-31T03:44:51.316Z,1.7
2023-07-31T03:46:53.167Z,1.8
2023-07-31T03:48:51.465Z,1.8
2023-07-31T03:50:51.953Z,1.8
2023-07-31T03:52:52.990Z,1.8
2023-07-31T03:54:52.495Z,1.6
2023-07-31T03:56:53.055Z,1.6
2023-07-31T03:58:53.694Z,1.6
2023-07-31T04:00:53.926Z,1.5
2023-07-31T04:02:54.489Z,1.7
2023-07-31T04:04:55.031Z,1.8
2023-07-31T04:06:55.577Z,1.7
2023-07-31T04:08:56.251Z,1.7
2023-07-31T04:10:56.812Z,1.6
2023-07-31T04:12:57.443Z,2
2023-07-31T04:14:58.236Z,1.9
2023-07-31T04:16:59.064Z,1.8
2023-07-31T04:18:59.589Z,1.6
2023-07-31T04:21:00.342Z,1.5
2023-07-31T04:23:00.886Z,2.1
2023-07-31T04:25:01.632Z,1.7
2023-07-31T04:27:03.018Z,1.4
2023-07-31T04:29:03.226Z,1.6
2023-07-31T04:31:03.955Z,1.6
2023-07-31T04:33:04.703Z,1.8
2023-07-31T04:35:06.059Z,1.7
2023-07-31T04:37:06.302Z,1.7
2023-07-31T04:39:06.995Z,1.6
2023-07-31T04:41:07.803Z,1.6
2023-07-31T04:43:08.539Z,1.8
2023-07-31T04:45:10.200Z,1.8
2023-07-31T04:47:10.346Z,1.5
2023-07-31T04:49:12.001Z,1.4
2023-07-31T04:51:11.762Z,2
2023-07-31T04:53:12.668Z,1.9
2023-07-31T04:55:13.505Z,1.8
2023-07-31T04:57:15.045Z,1.4
2023-07-31T04:59:15.161Z,1.6
2023-07-31T05:01:15.954Z,2.2
2023-07-31T05:03:16.760Z,1.8
2023-07-31T05:05:17.611Z,1.9
2023-07-31T05:07:18.370Z,1.5
2023-07-31T05:09:19.236Z,1.7
2023-07-31T05:11:20.165Z,1.9
2023-07-31T05:13:20.960Z,1.7
2023-07-31T05:15:21.888Z,1.5
2023-07-31T05:17:23.011Z,1.5
2023-07-31T05:19:23.513Z,4.4
2023-07-31T05:21:24.365Z,2
2023-07-31T05:23:25.176Z,4.6
2023-07-31T05:25:26.089Z,2.8
2023-07-31T05:27:26.785Z,2
2023-07-31T05:29:27.675Z,1.7
2023-07-31T05:31:28.402Z,1.7
2023-07-31T05:33:29.412Z,1.8
2023-07-31T05:35:30.292Z,1.7
2023-07-31T05:37:30.982Z,1.6
2023-07-31T05:39:31.751Z,1.5
2023-07-31T05:41:32.646Z,1.6
2023-07-31T05:43:33.504Z,1.7
2023-07-31T05:45:34.436Z,1.8
2023-07-31T05:47:35.230Z,1.8
2023-07-31T05:49:36.120Z,1.9
2023-07-31T05:51:37.074Z,1.6
2023-07-31T05:53:37.875Z,1.6
2023-07-31T05:55:38.817Z,1.6
2023-07-31T05:57:40.171Z,1.6
2023-07-31T05:59:40.523Z,1.7
2023-07-31T06:01:41.518Z,1.5
2023-07-31T06:03:42.547Z,1.5
2023-07-31T06:05:43.206Z,1.4
2023-07-31T06:07:44.112Z,1.6
2023-07-31T06:09:45.069Z,1.6
2023-07-31T06:11:45.937Z,1.7
2023-07-31T06:13:47.276Z,1.6
2023-07-31T06:15:47.778Z,2.2
2023-07-31T06:17:48.671Z,1.9
2023-07-31T06:19:49.731Z,1.8
2023-07-31T06:21:50.600Z,1.5
2023-07-31T06:23:51.340Z,1.7
2023-07-31T06:25:52.344Z,1.4
2023-07-31T06:27:53.481Z,2
2023-07-31T06:29:54.230Z,1.9
2023-07-31T06:31:55.208Z,1.8
2023-07-31T06:33:56.793Z,2
2023-07-31T06:35:57.079Z,1.7
2023-07-31T06:37:57.999Z,1.6
2023-07-31T06:39:59.056Z,1.7
2023-07-31T06:41:59.912Z,1.6
2023-07-31T06:44:00.832Z,1.8
2023-07-31T06:46:05.387Z,1.7
2023-07-31T06:48:03.868Z,1.6
2023-07-31T06:50:04.319Z,1.7
2023-07-31T06:52:05.073Z,1.9
2023-07-31T06:54:05.583Z,1.5
2023-07-31T06:56:06.477Z,2
2023-07-31T06:58:07.447Z,1.6
2023-07-31T07:00:10.644Z,1.8
2023-07-31T07:02:09.315Z,1.5
2023-07-31T07:04:10.284Z,1.7
2023-07-31T07:06:12.575Z,1.6
2023-07-31T07:08:12.301Z,1.8
2023-07-31T07:10:13.159Z,1.6
2023-07-31T07:12:14.127Z,1.6
2023-07-31T07:14:15.991Z,1.5
2023-07-31T07:16:16.103Z,1.9
2023-07-31T07:18:17.403Z,1.9
2023-07-31T07:20:18.012Z,1.8
2023-07-31T07:22:19.067Z,1.9
2023-07-31T07:24:19.650Z,1.6
2023-07-31T07:26:20.528Z,1.7
2023-07-31T07:28:21.548Z,2.2
2023-07-31T07:30:22.426Z,1.9
2023-07-31T07:32:23.432Z,1.6
2023-07-31T07:34:26.479Z,1.5
2023-07-31T07:36:25.029Z,1.4
2023-07-31T07:38:25.687Z,2.4
2023-07-31T07:40:26.605Z,1.4
2023-07-31T07:42:27.343Z,1.5
2023-07-31T07:44:27.945Z,1.5
2023-07-31T07:46:28.736Z,1.7
2023-07-31T07:48:29.430Z,1.5
2023-07-31T07:50:30.089Z,1.6
2023-07-31T07:52:30.634Z,1.7
2023-07-31T07:54:31.339Z,1.7
2023-07-31T07:56:33.400Z,1.6
2023-07-31T07:58:32.717Z,1.7
2023-07-31T08:00:33.284Z,1.9
2023-07-31T08:02:33.913Z,1.6
2023-07-31T08:04:34.472Z,1.7
2023-07-31T08:06:35.086Z,1.5
2023-07-31T08:08:35.931Z,2.2
2023-07-31T08:10:36.252Z,1.6
2023-07-31T08:12:36.799Z,1.7
2023-07-31T08:14:37.456Z,1.5
2023-07-31T08:16:39.108Z,1.7
2023-07-31T08:18:38.620Z,1.6
2023-07-31T08:20:39.182Z,2
2023-07-31T08:22:39.627Z,1.7
2023-07-31T08:24:40.244Z,1.7
2023-07-31T08:26:41.518Z,1.7
2023-07-31T08:28:41.589Z,1.6
2023-07-31T08:30:42.361Z,2.2
2023-07-31T08:32:42.613Z,1.6
2023-07-31T08:34:43.052Z,1.6
2023-07-31T08:36:43.664Z,1.6
2023-07-31T08:38:46.262Z,2
2023-07-31T08:40:44.782Z,1.7
2023-07-31T08:42:46.145Z,1.7
2023-07-31T08:44:47.845Z,1.6
2023-07-31T08:46:47.988Z,1.4
2023-07-31T08:48:47.219Z,1.8
2023-07-31T08:50:47.716Z,1.6
2023-07-31T08:52:49.730Z,1.8
2023-07-31T08:54:48.750Z,1.5
2023-07-31T08:56:50.898Z,1.9
2023-07-31T08:58:51.046Z,1.7
2023-07-31T09:00:54.256Z,1.9
2023-07-31T09:02:56.421Z,1.5
2023-07-31T09:04:52.012Z,1.7
2023-07-31T09:06:57.657Z,1.6
2023-07-31T09:08:52.907Z,1.6
2023-07-31T09:10:53.386Z,1.8
2023-07-31T09:12:55.035Z,1.6
2023-07-31T09:14:54.603Z,1.6
2023-07-31T09:16:56.133Z,1.4
2023-07-31T09:18:56.819Z,1.9
2023-07-31T09:21:04.450Z,1.6
2023-07-31T09:23:05.139Z,1.7
2023-07-31T09:25:14.157Z,1.7
2023-07-31T09:26:59.819Z,1.8
2023-07-31T09:28:58.819Z,2.2
2023-07-31T09:30:59.109Z,1.8
2023-07-31T09:33:03.496Z,2
2023-07-31T09:35:00.285Z,2.1
2023-07-31T09:37:02.360Z,1.8
2023-07-31T09:39:03.605Z,1.9
2023-07-31T09:41:02.027Z,2
2023-07-31T09:43:04.331Z,2
2023-07-31T09:45:11.500Z,2.2
2023-07-31T09:47:04.064Z,1.9
2023-07-31T09:49:06.730Z,2
2023-07-31T09:51:05.296Z,1.7
2023-07-31T09:53:07.229Z,1.8
2023-07-31T09:55:06.631Z,2.1
2023-07-31T09:57:08.909Z,2
2023-07-31T09:59:10.934Z,1.8
2023-07-31T10:01:07.856Z,2.7
2023-07-31T10:03:10.026Z,4.3
2023-07-31T10:05:09.002Z,1.7
2023-07-31T10:07:09.577Z,1.8
2023-07-31T10:09:13.005Z,1.6
2023-07-31T10:11:11.174Z,1.8
2023-07-31T10:13:14.142Z,1.7
2023-07-31T10:15:12.135Z,1.8
2023-07-31T10:17:13.071Z,1.8
2023-07-31T10:19:12.678Z,1.7
2023-07-31T10:21:14.290Z,1.8
2023-07-31T10:23:14.746Z,1.6
2023-07-31T10:25:16.140Z,1.6
2023-07-31T10:27:15.043Z,1.7
2023-07-31T10:29:16.917Z,1.5
2023-07-31T10:31:17.266Z,1.4
2023-07-31T10:33:17.840Z,1.5
2023-07-31T10:35:18.312Z,1.6
2023-07-31T10:37:22.932Z,1.8
2023-07-31T10:39:34.490Z,1.5
2023-07-31T10:41:18.952Z,1.7
2023-07-31T10:43:26.757Z,1.5
2023-07-31T10:45:33.163Z,1.6
2023-07-31T10:47:20.508Z,1.5
2023-07-31T10:49:21.832Z,2
2023-07-31T10:51:21.681Z,1.7
2023-07-31T10:53:24.132Z,1.5
2023-07-31T10:55:26.984Z,1.7
2023-07-31T10:57:23.325Z,1.6
2023-07-31T10:59:27.076Z,1.9
2023-07-31T11:01:39.493Z,1.6
2023-07-31T11:03:27.187Z,1.7
2023-07-31T11:05:42.739Z,1.5
2023-07-31T11:07:26.138Z,1.4
2023-07-31T11:09:29.491Z,1.6
2023-07-31T11:11:27.126Z,1.8
2023-07-31T11:13:28.239Z,1.6
2023-07-31T11:15:28.245Z,1.7
2023-07-31T11:17:28.961Z,1.6
2023-07-31T11:19:29.453Z,1.5
2023-07-31T11:21:30.002Z,1.7
2023-07-31T11:23:31.201Z,1.5
2023-07-31T11:25:31.904Z,1.6
2023-07-31T11:27:38.793Z,1.5
2023-07-31T11:29:32.269Z,1.6
2023-07-31T11:31:32.837Z,1.4
2023-07-31T11:33:33.545Z,1.5
2023-07-31T11:35:36.360Z,1.5
2023-07-31T11:37:42.959Z,1.6
2023-07-31T11:39:35.090Z,1.6
2023-07-31T11:41:35.990Z,1.7
2023-07-31T11:43:36.425Z,1.5
2023-07-31T11:45:37.159Z,1.6
2023-07-31T11:47:38.590Z,1.6
2023-07-31T11:49:37.990Z,1.6
2023-07-31T11:51:38.687Z,1.6
2023-07-31T11:53:44.628Z,1.4
2023-07-31T11:55:40.237Z,1.4
2023-07-31T11:57:43.026Z,1.6
2023-07-31T11:59:41.644Z,1.5
2023-07-31T12:01:41.698Z,1.6
2023-07-31T12:03:42.730Z,1.5
2023-07-31T12:05:42.626Z,1.6
2023-07-31T12:07:46.074Z,1.7
2023-07-31T12:09:52.163Z,1.6
2023-07-31T12:11:44.687Z,1.5
2023-07-31T12:13:44.754Z,1.4
2023-07-31T12:15:46.452Z,1.5
2023-07-31T12:17:48.118Z,1.5
2023-07-31T12:19:49.628Z,2.1
2023-07-31T12:21:47.103Z,1.7
2023-07-31T12:23:47.706Z,2.7
2023-07-31T12:25:48.272Z,1.5
2023-07-31T12:27:51.177Z,1.6
2023-07-31T12:29:49.286Z,1.8
2023-07-31T12:31:49.814Z,1.7
2023-07-31T12:33:51.732Z,1.6
2023-07-31T12:35:52.198Z,1.7
2023-07-31T12:37:51.471Z,1.6
2023-07-31T12:39:51.990Z,1.6
2023-07-31T12:41:52.981Z,1.8
2023-07-31T12:43:53.025Z,1.6
2023-07-31T12:45:55.240Z,1.4
2023-07-31T12:47:54.201Z,1.6
2023-07-31T12:49:54.648Z,1.7
2023-07-31T12:51:55.219Z,1.4
2023-07-31T12:53:55.815Z,1.7
2023-07-31T12:55:56.804Z,1.6
2023-07-31T12:57:56.883Z,1.7
2023-07-31T12:59:57.443Z,1.4
2023-07-31T13:01:57.979Z,1.5
2023-07-31T13:03:58.509Z,1.5
2023-07-31T13:05:59.092Z,1.7
2023-07-31T13:08:00.090Z,1.6
2023-07-31T13:10:00.133Z,1.4
2023-07-31T13:12:00.662Z,1.5
2023-07-31T13:14:01.236Z,1.5
2023-07-31T13:16:01.777Z,1.4
2023-07-31T13:18:02.529Z,1.4
2023-07-31T13:20:03.528Z,1.4
2023-07-31T13:22:03.750Z,1.4
2023-07-31T13:24:04.357Z,1.6
2023-07-31T13:26:04.451Z,2.1
2023-07-31T13:28:04.942Z,1.7
2023-07-31T13:30:06.887Z,1.5
2023-07-31T13:32:06.377Z,1.4
2023-07-31T13:34:06.496Z,1.6
2023-07-31T13:36:07.188Z,1.3
2023-07-31T13:38:07.678Z,1.3
2023-07-31T13:40:09.229Z,1.3
2023-07-31T13:42:09.365Z,1.9
2023-07-31T13:44:09.329Z,1.5
2023-07-31T13:46:09.980Z,1.4
2023-07-31T13:48:10.614Z,1.8
2023-07-31T13:50:10.975Z,1.7
2023-07-31T13:52:11.414Z,1.7
2023-07-31T13:54:11.933Z,1.5
2023-07-31T13:56:12.703Z,1.6
2023-07-31T13:58:13.046Z,1.7
2023-07-31T14:00:14.561Z,2.5
2023-07-31T14:02:14.145Z,1.9
2023-07-31T14:04:14.753Z,1.8
2023-07-31T14:06:15.127Z,2.3
2023-07-31T14:08:15.759Z,1.8
2023-07-31T14:10:16.276Z,1.7
2023-07-31T14:12:31.772Z,1.6
2023-07-31T14:14:17.608Z,1.9
2023-07-31T14:16:18.014Z,2.3
2023-07-31T14:18:18.697Z,1.8
2023-07-31T14:20:19.161Z,2
2023-07-31T14:22:28.317Z,2
2023-07-31T14:24:19.833Z,1.7
2023-07-31T14:26:20.583Z,1.6
2023-07-31T14:28:21.024Z,1.8
2023-07-31T14:30:21.348Z,1.5
2023-07-31T14:32:22.702Z,1.7
2023-07-31T14:34:22.475Z,1.7
2023-07-31T14:36:22.919Z,2.2
2023-07-31T14:38:23.584Z,2
2023-07-31T14:40:23.925Z,1.7
2023-07-31T14:42:24.482Z,1.7
2023-07-31T14:44:24.993Z,1.8
2023-07-31T14:46:25.686Z,1.6
2023-07-31T14:48:26.317Z,1.6
2023-07-31T14:50:27.046Z,2
2023-07-31T14:52:27.073Z,1.6
2023-07-31T14:54:27.517Z,1.5
2023-07-31T14:56:28.140Z,1.8
2023-07-31T14:58:28.545Z,1.8
2023-07-31T15:00:29.200Z,1.4
2023-07-31T15:02:30.025Z,1.6
2023-07-31T15:04:30.293Z,2.1
2023-07-31T15:06:30.696Z,2.2
2023-07-31T15:08:31.234Z,1.5
2023-07-31T15:10:32.108Z,1.9
2023-07-31T15:12:32.375Z,1.8
2023-07-31T15:14:32.685Z,1.6
2023-07-31T15:16:33.178Z,1.5
2023-07-31T15:18:33.633Z,1.5
2023-07-31T15:20:34.252Z,1.7
2023-07-31T15:22:34.647Z,1.6
2023-07-31T15:24:35.162Z,1.5
2023-07-31T15:26:37.172Z,1.3
2023-07-31T15:28:36.300Z,1.4
2023-07-31T15:30:36.870Z,1.5
2023-07-31T15:32:38.439Z,1.4
2023-07-31T15:34:37.629Z,1.5
2023-07-31T15:36:38.443Z,1.5
2023-07-31T15:38:38.741Z,1.3
2023-07-31T15:40:39.484Z,1.7
2023-07-31T15:42:39.667Z,1.7
2023-07-31T15:44:40.274Z,2
2023-07-31T15:46:40.895Z,1.8
2023-07-31T15:48:41.266Z,2.1
2023-07-31T15:50:41.692Z,1.8
2023-07-31T15:52:42.147Z,2.2
2023-07-31T15:54:42.636Z,1.9
2023-07-31T15:56:43.167Z,2.1
2023-07-31T15:58:43.713Z,1.5
2023-07-31T16:00:44.332Z,1.9
2023-07-31T16:02:45.076Z,1.5
2023-07-31T16:04:45.058Z,1.5
2023-07-31T16:06:46.103Z,1.5
2023-07-31T16:08:46.587Z,1.3
2023-07-31T16:10:46.707Z,1.5
2023-07-31T16:12:47.726Z,1.6
2023-07-31T16:14:47.586Z,1.4
2023-07-31T16:16:48.100Z,1.6
2023-07-31T16:18:48.660Z,1.5
2023-07-31T16:20:49.102Z,1.5
2023-07-31T16:22:49.657Z,1.6
2023-07-31T16:24:50.983Z,1.6
2023-07-31T16:26:50.556Z,1.4
2023-07-31T16:28:51.112Z,1.6
2023-07-31T16:30:51.544Z,1.8
2023-07-31T16:32:52.757Z,1.4
2023-07-31T16:34:52.470Z,1.8
2023-07-31T16:36:53.114Z,1.7
2023-07-31T16:38:53.448Z,1.5
2023-07-31T16:40:53.932Z,1.4
2023-07-31T16:42:54.400Z,1.6
2023-07-31T16:44:54.890Z,1.7
2023-07-31T16:46:55.838Z,1.6
2023-07-31T16:48:55.854Z,1.9
2023-07-31T16:50:56.384Z,2
2023-07-31T16:52:56.947Z,1.8
2023-07-31T16:54:57.695Z,1.7
2023-07-31T16:57:00.444Z,2
2023-07-31T16:58:58.216Z,1.9
2023-07-31T17:00:58.602Z,2.6
2023-07-31T17:02:59.345Z,2.7
2023-07-31T17:04:59.571Z,3.5
2023-07-31T17:07:00.009Z,2.9
2023-07-31T17:09:00.700Z,3.4
2023-07-31T17:11:00.954Z,3.5
2023-07-31T17:13:01.352Z,3.9
2023-07-31T17:15:01.765Z,3.8
2023-07-31T17:17:02.448Z,4.1
2023-07-31T17:19:03.406Z,4.3
2023-07-31T17:21:03.592Z,4.3
2023-07-31T17:23:03.688Z,4.7
2023-07-31T17:25:04.580Z,4.3
2023-07-31T17:27:04.771Z,4.5
2023-07-31T17:29:05.042Z,4.3
2023-07-31T17:31:05.525Z,4.6
2023-07-31T17:33:06.000Z,4.9
2023-07-31T17:35:06.864Z,5
2023-07-31T17:37:06.703Z,4.8
2023-07-31T17:39:07.150Z,4.3
2023-07-31T17:41:07.737Z,4.9
2023-07-31T17:43:08.754Z,4.7
2023-07-31T17:45:09.051Z,5
2023-07-31T17:47:09.119Z,5.5
2023-07-31T17:49:09.511Z,5.5
2023-07-31T17:51:09.796Z,5.7
2023-07-31T17:53:10.299Z,5.6
2023-07-31T17:55:10.637Z,5.3
2023-07-31T17:57:11.018Z,6.2
2023-07-31T17:59:11.550Z,6.5
2023-07-31T18:01:11.977Z,5.9
2023-07-31T18:03:12.417Z,4.9
2023-07-31T18:05:12.831Z,5.2
2023-07-31T18:07:13.158Z,5.2
2023-07-31T18:09:13.545Z,5.4
2023-07-31T18:11:14.071Z,5.1
2023-07-31T18:13:15.313Z,5.9
2023-07-31T18:15:14.838Z,6
2023-07-31T18:17:15.273Z,6.7
2023-07-31T18:19:16.151Z,6.2
2023-07-31T18:21:15.866Z,6.8
2023-07-31T18:23:16.350Z,5.6
2023-07-31T18:25:16.833Z,5.9
2023-07-31T18:27:17.036Z,6.3
2023-07-31T18:29:17.485Z,6.2
2023-07-31T18:31:17.852Z,6.2
2023-07-31T18:33:18.145Z,6
2023-07-31T18:35:19.068Z,6.3
2023-07-31T18:37:19.024Z,6.9
2023-07-31T18:39:19.332Z,7.8
2023-07-31T18:41:19.728Z,5.9
2023-07-31T18:43:20.007Z,6.5
2023-07-31T18:45:20.408Z,6.3
2023-07-31T18:47:20.989Z,7.6
2023-07-31T18:49:21.706Z,7.9
2023-07-31T18:51:21.527Z,7.8
2023-07-31T18:53:22.006Z,9.3
2023-07-31T18:55:22.234Z,9.1
2023-07-31T18:57:22.726Z,10
2023-07-31T18:59:22.945Z,9.7
2023-07-31T19:01:24.279Z,9.2
2023-07-31T19:03:24.091Z,9.8
2023-07-31T19:05:24.375Z,8.5
2023-07-31T19:07:24.495Z,9.4
2023-07-31T19:09:29.387Z,8.9
2023-07-31T19:11:32.664Z,9.2
2023-07-31T19:13:25.560Z,10.9
2023-07-31T19:15:26.073Z,11.2
2023-07-31T19:17:26.334Z,10.3
2023-07-31T19:19:26.592Z,10.1
2023-07-31T19:21:26.920Z,9.6
2023-07-31T19:23:27.163Z,9.8
2023-07-31T19:25:27.618Z,8.6
2023-07-31T19:27:27.947Z,6.7
2023-07-31T19:29:28.287Z,8
2023-07-31T19:31:28.545Z,7.1
2023-07-31T19:33:28.989Z,7.1
2023-07-31T19:35:29.272Z,6.7
2023-07-31T19:37:29.735Z,7.7
2023-07-31T19:39:30.060Z,7.7
2023-07-31T19:41:30.917Z,8.8
2023-07-31T19:43:30.785Z,9.1
2023-07-31T19:45:31.032Z,7.9
2023-07-31T19:47:31.786Z,7.1
2023-07-31T19:49:31.732Z,7
2023-07-31T19:51:32.085Z,5.6
2023-07-31T19:53:32.418Z,6.4
2023-07-31T19:55:32.815Z,6.2
2023-07-31T19:57:33.039Z,5.4
2023-07-31T19:59:33.465Z,5.3
2023-07-31T20:01:33.782Z,5.1
2023-07-31T20:03:34.048Z,4.9
2023-07-31T20:05:34.421Z,4.2
2023-07-31T20:07:34.888Z,3.8
2023-07-31T20:09:35.155Z,3.5
2023-07-31T20:11:35.451Z,3.5
2023-07-31T20:13:35.946Z,4.2
2023-07-31T20:15:36.300Z,3.9
2023-07-31T20:17:36.525Z,4
2023-07-31T20:19:36.944Z,3.9
2023-07-31T20:21:37.459Z,4.6
2023-07-31T20:23:42.870Z,5.7
2023-07-31T20:25:37.862Z,5.5
2023-07-31T20:27:38.258Z,4.9
2023-07-31T20:29:38.497Z,8.2
2023-07-31T20:31:39.024Z,14.8
2023-07-31T20:33:39.316Z,6.4
2023-07-31T20:35:39.564Z,6.4
2023-07-31T20:37:39.851Z,6.9
2023-07-31T20:39:40.454Z,11.4
2023-07-31T20:41:40.563Z,10.7
2023-07-31T20:43:40.884Z,12.2
2023-07-31T20:45:41.513Z,11.5
2023-07-31T20:47:41.567Z,11.5
2023-07-31T20:49:41.887Z,11
2023-07-31T20:51:42.304Z,10.4
2023-07-31T20:53:42.701Z,10
2023-07-31T20:55:42.868Z,10.5
2023-07-31T20:57:43.281Z,9
2023-07-31T20:59:43.560Z,9
2023-07-31T21:01:43.839Z,8.9
2023-07-31T21:03:44.564Z,10.7
2023-07-31T21:05:50.069Z,12.5
2023-07-31T21:07:44.815Z,13
2023-07-31T21:09:45.279Z,12.5
2023-07-31T21:11:45.462Z,17.5
2023-07-31T21:13:45.921Z,19.3
2023-07-31T21:15:46.297Z,17.9
2023-07-31T21:17:47.152Z,19.4
2023-07-31T21:19:46.854Z,19.6
2023-07-31T21:21:47.048Z,17.6
2023-07-31T21:23:47.455Z,17.2
2023-07-31T21:25:48.232Z,16.9
2023-07-31T21:27:48.002Z,12.8
2023-07-31T21:29:48.506Z,13.8
2023-07-31T21:31:48.741Z,11.6
2023-07-31T21:33:48.905Z,12.3
2023-07-31T21:35:49.233Z,9.5
2023-07-31T21:37:49.624Z,9.4
2023-07-31T21:39:49.898Z,9.5
2023-07-31T21:41:50.152Z,7.9
2023-07-31T21:43:50.778Z,7.8
2023-07-31T21:45:50.958Z,8.5
2023-07-31T21:47:51.506Z,8.4
2023-07-31T21:49:51.515Z,8.3
2023-07-31T21:51:51.773Z,9.7
2023-07-31T21:53:52.043Z,9.6
2023-07-31T21:55:52.421Z,8.3
2023-07-31T21:57:52.659Z,7.9
2023-07-31T21:59:53.547Z,7.1
2023-07-31T22:01:53.361Z,7.5
2023-07-31T22:03:53.583Z,7.6
2023-07-31T22:05:53.913Z,7.2
2023-07-31T22:07:54.296Z,6.8
2023-07-31T22:09:54.516Z,6.6
2023-07-31T22:11:54.809Z,6.3
2023-07-31T22:13:55.356Z,6.4
2023-07-31T22:15:55.431Z,6.5
2023-07-31T22:17:55.789Z,6.9
2023-07-31T22:19:56.120Z,7.1
2023-07-31T22:21:56.311Z,6.7
2023-07-31T22:23:56.573Z,6.1
2023-07-31T22:25:56.983Z,5.4
2023-07-31T22:28:01.504Z,5.2
2023-07-31T22:29:57.494Z,4.6
2023-07-31T22:31:57.953Z,5.4
2023-07-31T22:33:58.114Z,4.9
2023-07-31T22:35:58.426Z,4.8
2023-07-31T22:37:58.843Z,4.7
2023-07-31T22:39:59.103Z,4.7
2023-07-31T22:41:59.363Z,4.6
2023-07-31T22:43:59.822Z,4.8
2023-07-31T22:46:00.030Z,4.9
2023-07-31T22:48:00.295Z,4.5
2023-07-31T22:50:00.738Z,4.3
2023-07-31T22:52:00.817Z,4.2
2023-07-31T22:54:01.369Z,4.5
2023-07-31T22:56:03.674Z,4.5
2023-07-31T22:58:01.768Z,4.6
2023-07-31T23:00:02.687Z,6.1
2023-07-31T23:02:02.470Z,6
2023-07-31T23:04:02.820Z,5.2
2023-07-31T23:06:03.143Z,4.6
2023-07-31T23:08:03.342Z,4.9
2023-07-31T23:10:04.084Z,5
2023-07-31T23:12:04.516Z,4.5
2023-07-31T23:14:04.478Z,4.2
2023-07-31T23:16:04.718Z,4.2
2023-07-31T23:18:05.901Z,4
2023-07-31T23:20:06.130Z,4.3
2023-07-31T23:22:06.158Z,4.8
2023-07-31T23:24:05.495Z,4.7
2023-07-31T23:26:05.791Z,4.6
2023-07-31T23:28:07.661Z,4.4
2023-07-31T23:30:07.525Z,3.8
2023-07-31T23:32:07.293Z,4
2023-07-31T23:34:07.024Z,5
2023-07-31T23:36:09.333Z,4.8
2023-07-31T23:38:07.541Z,6.9
2023-07-31T23:40:08.547Z,8.5
2023-07-31T23:42:08.129Z,12
2023-07-31T23:44:08.396Z,11.8
2023-07-31T23:46:08.650Z,9.4
2023-07-31T23:48:09.078Z,8.5
2023-07-31T23:50:09.539Z,12.5
2023-07-31T23:52:09.456Z,8.1
2023-07-31T23:54:11.724Z,8.4
2023-07-31T23:56:10.032Z,9.1
2023-07-31T23:58:11.147Z,9.5
